sensor_id;sensor_type;location;lat;lon;timestamp;temperature;humidity
10512;DHT22;5304;48.604;2.096;2024-02-16T00:01:41;14.20;99.90
10512;DHT22;5304;48.604;2.096;2024-02-16T00:04:25;14.20;99.90
10512;DHT22;5304;48.604;2.096;2024-02-16T00:07:09;14.30;99.90
10512;DHT22;5304;48.604;2.096;2024-02-16T00:09:54;14.40;99.90
10512;DHT22;5304;48.604;2.096;2024-02-16T00:12:38;14.40;99.90
10512;DHT22;5304;48.604;2.096;2024-02-16T00:15:24;14.30;99.90
10512;DHT22;5304;48.604;2.096;2024-02-16T00:18:08;14.30;99.90
10512;DHT22;5304;48.604;2.096;2024-02-16T00:20:52;14.20;99.90
10512;DHT22;5304;48.604;2.096;2024-02-16T00:23:37;14.20;99.90
10512;DHT22;5304;48.604;2.096;2024-02-16T00:26:21;14.10;99.90
10512;DHT22;5304;48.604;2.096;2024-02-16T00:29:07;14.10;99.90
10512;DHT22;5304;48.604;2.096;2024-02-16T00:31:52;14.10;99.90
10512;DHT22;5304;48.604;2.096;2024-02-16T00:34:37;14.20;99.90
10512;DHT22;5304;48.604;2.096;2024-02-16T00:37:23;14.10;99.90
10512;DHT22;5304;48.604;2.096;2024-02-16T00:40:09;14.20;99.90
10512;DHT22;5304;48.604;2.096;2024-02-16T00:42:54;14.20;99.90
10512;DHT22;5304;48.604;2.096;2024-02-16T00:45:38;14.30;99.90
10512;DHT22;5304;48.604;2.096;2024-02-16T00:48:23;14.30;99.90
10512;DHT22;5304;48.604;2.096;2024-02-16T00:51:09;14.30;99.90
10512;DHT22;5304;48.604;2.096;2024-02-16T00:53:53;14.20;99.90
10512;DHT22;5304;48.604;2.096;2024-02-16T00:56:37;14.20;99.90
10512;DHT22;5304;48.604;2.096;2024-02-16T00:59:22;14.20;99.90
10512;DHT22;5304;48.604;2.096;2024-02-16T01:02:07;14.30;99.90
10512;DHT22;5304;48.604;2.096;2024-02-16T01:04:51;14.30;99.90
10512;DHT22;5304;48.604;2.096;2024-02-16T01:07:36;14.30;99.90
10512;DHT22;5304;48.604;2.096;2024-02-16T01:10:21;14.20;99.90
10512;DHT22;5304;48.604;2.096;2024-02-16T01:13:05;14.20;99.90
10512;DHT22;5304;48.604;2.096;2024-02-16T01:15:50;14.20;99.90
10512;DHT22;5304;48.604;2.096;2024-02-16T01:18:34;14.20;99.90
10512;DHT22;5304;48.604;2.096;2024-02-16T01:21:20;14.10;99.90
10512;DHT22;5304;48.604;2.096;2024-02-16T01:24:05;14.20;99.90
10512;DHT22;5304;48.604;2.096;2024-02-16T01:26:49;14.10;99.90
10512;DHT22;5304;48.604;2.096;2024-02-16T01:29:34;14.20;99.90
10512;DHT22;5304;48.604;2.096;2024-02-16T01:32:18;14.20;99.90
10512;DHT22;5304;48.604;2.096;2024-02-16T01:35:02;14.10;99.90
10512;DHT22;5304;48.604;2.096;2024-02-16T01:37:47;14.10;99.90
10512;DHT22;5304;48.604;2.096;2024-02-16T01:40:31;14.10;99.90
10512;DHT22;5304;48.604;2.096;2024-02-16T01:43:21;14.10;99.90
10512;DHT22;5304;48.604;2.096;2024-02-16T01:46:06;14.00;99.90
10512;DHT22;5304;48.604;2.096;2024-02-16T01:48:51;14.00;99.90
10512;DHT22;5304;48.604;2.096;2024-02-16T01:51:37;14.00;99.90
10512;DHT22;5304;48.604;2.096;2024-02-16T01:54:21;14.00;99.90
10512;DHT22;5304;48.604;2.096;2024-02-16T01:57:06;14.00;99.90
10512;DHT22;5304;48.604;2.096;2024-02-16T01:59:52;13.90;99.90
10512;DHT22;5304;48.604;2.096;2024-02-16T02:02:37;13.90;99.90
10512;DHT22;5304;48.604;2.096;2024-02-16T02:05:21;13.90;99.90
10512;DHT22;5304;48.604;2.096;2024-02-16T02:08:12;13.90;99.90
10512;DHT22;5304;48.604;2.096;2024-02-16T02:10:56;13.90;99.90
10512;DHT22;5304;48.604;2.096;2024-02-16T02:13:41;13.90;99.90
10512;DHT22;5304;48.604;2.096;2024-02-16T02:16:25;13.90;99.90
10512;DHT22;5304;48.604;2.096;2024-02-16T02:19:11;13.90;99.90
10512;DHT22;5304;48.604;2.096;2024-02-16T02:21:56;13.90;99.90
10512;DHT22;5304;48.604;2.096;2024-02-16T02:24:41;13.90;99.90
10512;DHT22;5304;48.604;2.096;2024-02-16T02:27:25;13.90;99.90
10512;DHT22;5304;48.604;2.096;2024-02-16T02:30:10;13.80;99.90
10512;DHT22;5304;48.604;2.096;2024-02-16T02:32:54;13.90;99.90
10512;DHT22;5304;48.604;2.096;2024-02-16T02:35:38;13.80;99.90
10512;DHT22;5304;48.604;2.096;2024-02-16T02:38:23;13.80;99.90
10512;DHT22;5304;48.604;2.096;2024-02-16T02:41:07;13.80;99.90
10512;DHT22;5304;48.604;2.096;2024-02-16T02:43:52;13.80;99.90
10512;DHT22;5304;48.604;2.096;2024-02-16T02:46:36;13.80;99.90
10512;DHT22;5304;48.604;2.096;2024-02-16T02:49:20;13.70;99.90
10512;DHT22;5304;48.604;2.096;2024-02-16T02:52:05;13.80;99.90
10512;DHT22;5304;48.604;2.096;2024-02-16T02:54:50;13.80;99.90
10512;DHT22;5304;48.604;2.096;2024-02-16T02:57:34;13.80;99.90
10512;DHT22;5304;48.604;2.096;2024-02-16T03:00:19;13.80;99.90
10512;DHT22;5304;48.604;2.096;2024-02-16T03:03:03;13.80;99.90
10512;DHT22;5304;48.604;2.096;2024-02-16T03:05:49;13.80;99.90
10512;DHT22;5304;48.604;2.096;2024-02-16T03:08:35;13.80;99.90
10512;DHT22;5304;48.604;2.096;2024-02-16T03:11:19;13.70;99.90
10512;DHT22;5304;48.604;2.096;2024-02-16T03:14:04;13.90;99.90
10512;DHT22;5304;48.604;2.096;2024-02-16T03:16:49;13.80;99.90
10512;DHT22;5304;48.604;2.096;2024-02-16T03:19:33;13.70;99.90
10512;DHT22;5304;48.604;2.096;2024-02-16T03:22:18;13.70;99.90
10512;DHT22;5304;48.604;2.096;2024-02-16T03:25:02;13.70;99.90
10512;DHT22;5304;48.604;2.096;2024-02-16T03:27:46;13.60;99.90
10512;DHT22;5304;48.604;2.096;2024-02-16T03:30:31;13.60;99.90
10512;DHT22;5304;48.604;2.096;2024-02-16T03:33:15;13.70;99.90
10512;DHT22;5304;48.604;2.096;2024-02-16T03:36:00;13.60;99.90
10512;DHT22;5304;48.604;2.096;2024-02-16T03:38:46;13.60;99.90
10512;DHT22;5304;48.604;2.096;2024-02-16T03:41:30;13.60;99.90
10512;DHT22;5304;48.604;2.096;2024-02-16T03:44:15;13.50;99.90
10512;DHT22;5304;48.604;2.096;2024-02-16T03:47:02;13.50;99.90
10512;DHT22;5304;48.604;2.096;2024-02-16T03:49:47;13.60;99.90
10512;DHT22;5304;48.604;2.096;2024-02-16T03:52:31;13.50;99.90
10512;DHT22;5304;48.604;2.096;2024-02-16T03:55:16;13.50;99.90
10512;DHT22;5304;48.604;2.096;2024-02-16T03:58:00;13.50;99.90
10512;DHT22;5304;48.604;2.096;2024-02-16T04:00:44;13.60;99.90
10512;DHT22;5304;48.604;2.096;2024-02-16T04:03:28;13.60;99.90
10512;DHT22;5304;48.604;2.096;2024-02-16T04:06:12;13.60;99.90
10512;DHT22;5304;48.604;2.096;2024-02-16T04:08:57;13.50;99.90
10512;DHT22;5304;48.604;2.096;2024-02-16T04:11:41;13.60;99.90
10512;DHT22;5304;48.604;2.096;2024-02-16T04:14:25;13.50;99.90
10512;DHT22;5304;48.604;2.096;2024-02-16T04:17:09;13.60;99.90
10512;DHT22;5304;48.604;2.096;2024-02-16T04:19:54;13.60;99.90
10512;DHT22;5304;48.604;2.096;2024-02-16T04:22:38;13.50;99.90
10512;DHT22;5304;48.604;2.096;2024-02-16T04:25:22;13.50;99.90
10512;DHT22;5304;48.604;2.096;2024-02-16T04:28:07;13.50;99.90
10512;DHT22;5304;48.604;2.096;2024-02-16T04:30:51;13.60;99.90
10512;DHT22;5304;48.604;2.096;2024-02-16T04:33:36;13.50;99.90
10512;DHT22;5304;48.604;2.096;2024-02-16T04:36:20;13.60;99.90
10512;DHT22;5304;48.604;2.096;2024-02-16T04:39:04;13.70;99.90
10512;DHT22;5304;48.604;2.096;2024-02-16T04:41:48;13.70;99.90
10512;DHT22;5304;48.604;2.096;2024-02-16T04:44:37;13.60;99.90
10512;DHT22;5304;48.604;2.096;2024-02-16T04:47:24;13.60;99.90
10512;DHT22;5304;48.604;2.096;2024-02-16T04:50:09;13.70;99.90
10512;DHT22;5304;48.604;2.096;2024-02-16T04:52:53;13.60;99.90
10512;DHT22;5304;48.604;2.096;2024-02-16T04:55:37;13.60;99.90
10512;DHT22;5304;48.604;2.096;2024-02-16T04:58:21;13.70;99.90
10512;DHT22;5304;48.604;2.096;2024-02-16T05:01:07;13.60;99.90
10512;DHT22;5304;48.604;2.096;2024-02-16T05:03:51;13.70;99.90
10512;DHT22;5304;48.604;2.096;2024-02-16T05:06:39;13.60;99.90
10512;DHT22;5304;48.604;2.096;2024-02-16T05:09:27;13.60;99.90
10512;DHT22;5304;48.604;2.096;2024-02-16T05:12:11;13.60;99.90
10512;DHT22;5304;48.604;2.096;2024-02-16T05:14:55;13.60;99.90
10512;DHT22;5304;48.604;2.096;2024-02-16T05:17:40;13.50;99.90
10512;DHT22;5304;48.604;2.096;2024-02-16T05:20:25;13.60;99.90
10512;DHT22;5304;48.604;2.096;2024-02-16T05:23:09;13.60;99.90
10512;DHT22;5304;48.604;2.096;2024-02-16T05:25:54;13.60;99.90
10512;DHT22;5304;48.604;2.096;2024-02-16T05:28:38;13.60;99.90
10512;DHT22;5304;48.604;2.096;2024-02-16T05:31:23;13.60;99.90
10512;DHT22;5304;48.604;2.096;2024-02-16T05:34:07;13.50;99.90
10512;DHT22;5304;48.604;2.096;2024-02-16T05:36:51;13.60;99.90
10512;DHT22;5304;48.604;2.096;2024-02-16T05:39:36;13.60;99.90
10512;DHT22;5304;48.604;2.096;2024-02-16T05:42:37;13.60;99.90
10512;DHT22;5304;48.604;2.096;2024-02-16T05:45:24;13.60;99.90
10512;DHT22;5304;48.604;2.096;2024-02-16T05:48:08;13.60;99.90
10512;DHT22;5304;48.604;2.096;2024-02-16T05:50:59;13.60;99.90
10512;DHT22;5304;48.604;2.096;2024-02-16T05:53:44;13.60;99.90
10512;DHT22;5304;48.604;2.096;2024-02-16T05:56:30;13.60;99.90
10512;DHT22;5304;48.604;2.096;2024-02-16T05:59:17;13.60;99.90
10512;DHT22;5304;48.604;2.096;2024-02-16T06:02:01;13.60;99.90
10512;DHT22;5304;48.604;2.096;2024-02-16T06:04:45;13.60;99.90
10512;DHT22;5304;48.604;2.096;2024-02-16T06:07:30;13.60;99.90
10512;DHT22;5304;48.604;2.096;2024-02-16T06:10:14;13.60;99.90
10512;DHT22;5304;48.604;2.096;2024-02-16T06:12:59;13.60;99.90
10512;DHT22;5304;48.604;2.096;2024-02-16T06:15:43;13.60;99.90
10512;DHT22;5304;48.604;2.096;2024-02-16T06:18:27;13.60;99.90
10512;DHT22;5304;48.604;2.096;2024-02-16T06:21:13;13.60;99.90
10512;DHT22;5304;48.604;2.096;2024-02-16T06:23:57;13.60;99.90
10512;DHT22;5304;48.604;2.096;2024-02-16T06:26:41;13.70;99.90
10512;DHT22;5304;48.604;2.096;2024-02-16T06:29:27;13.60;99.90
10512;DHT22;5304;48.604;2.096;2024-02-16T06:32:12;13.60;99.90
10512;DHT22;5304;48.604;2.096;2024-02-16T06:34:57;13.50;99.90
10512;DHT22;5304;48.604;2.096;2024-02-16T06:37:41;13.60;99.90
10512;DHT22;5304;48.604;2.096;2024-02-16T06:40:26;13.50;99.90
10512;DHT22;5304;48.604;2.096;2024-02-16T06:43:10;13.50;99.90
10512;DHT22;5304;48.604;2.096;2024-02-16T06:45:54;13.50;99.90
10512;DHT22;5304;48.604;2.096;2024-02-16T06:48:40;13.50;99.90
10512;DHT22;5304;48.604;2.096;2024-02-16T06:51:25;13.60;99.90
10512;DHT22;5304;48.604;2.096;2024-02-16T06:54:11;13.50;99.90
10512;DHT22;5304;48.604;2.096;2024-02-16T06:56:55;13.50;99.90
10512;DHT22;5304;48.604;2.096;2024-02-16T06:59:39;13.40;99.90
10512;DHT22;5304;48.604;2.096;2024-02-16T07:02:23;13.50;99.90
10512;DHT22;5304;48.604;2.096;2024-02-16T07:05:10;13.40;99.90
10512;DHT22;5304;48.604;2.096;2024-02-16T07:07:54;13.40;99.90
10512;DHT22;5304;48.604;2.096;2024-02-16T07:10:39;13.40;99.90
10512;DHT22;5304;48.604;2.096;2024-02-16T07:13:23;13.40;99.90
10512;DHT22;5304;48.604;2.096;2024-02-16T07:16:07;13.40;99.90
10512;DHT22;5304;48.604;2.096;2024-02-16T07:18:52;13.30;99.90
10512;DHT22;5304;48.604;2.096;2024-02-16T07:21:36;13.20;99.90
10512;DHT22;5304;48.604;2.096;2024-02-16T07:24:20;13.20;99.90
10512;DHT22;5304;48.604;2.096;2024-02-16T07:27:04;13.20;99.90
10512;DHT22;5304;48.604;2.096;2024-02-16T07:29:49;13.20;99.90
10512;DHT22;5304;48.604;2.096;2024-02-16T07:32:33;13.20;99.90
10512;DHT22;5304;48.604;2.096;2024-02-16T07:35:18;13.10;99.90
10512;DHT22;5304;48.604;2.096;2024-02-16T07:38:03;13.10;99.90
10512;DHT22;5304;48.604;2.096;2024-02-16T07:40:47;13.10;99.90
10512;DHT22;5304;48.604;2.096;2024-02-16T07:43:32;13.20;99.90
10512;DHT22;5304;48.604;2.096;2024-02-16T07:46:16;13.20;99.90
10512;DHT22;5304;48.604;2.096;2024-02-16T07:49:02;13.20;99.90
10512;DHT22;5304;48.604;2.096;2024-02-16T07:51:48;13.30;99.90
10512;DHT22;5304;48.604;2.096;2024-02-16T07:54:32;13.30;99.90
10512;DHT22;5304;48.604;2.096;2024-02-16T07:57:17;13.30;99.90
10512;DHT22;5304;48.604;2.096;2024-02-16T08:00:02;13.40;99.90
10512;DHT22;5304;48.604;2.096;2024-02-16T08:02:47;13.40;99.90
10512;DHT22;5304;48.604;2.096;2024-02-16T08:05:32;13.50;99.90
10512;DHT22;5304;48.604;2.096;2024-02-16T08:08:16;13.50;99.90
10512;DHT22;5304;48.604;2.096;2024-02-16T08:11:00;13.50;99.90
10512;DHT22;5304;48.604;2.096;2024-02-16T08:13:46;13.50;99.90
10512;DHT22;5304;48.604;2.096;2024-02-16T08:16:30;13.50;99.90
10512;DHT22;5304;48.604;2.096;2024-02-16T08:19:15;13.50;99.90
10512;DHT22;5304;48.604;2.096;2024-02-16T08:21:59;13.50;99.90
10512;DHT22;5304;48.604;2.096;2024-02-16T08:24:43;13.60;99.90
10512;DHT22;5304;48.604;2.096;2024-02-16T08:27:29;13.50;99.90
10512;DHT22;5304;48.604;2.096;2024-02-16T08:30:14;13.50;99.90
10512;DHT22;5304;48.604;2.096;2024-02-16T08:32:58;13.60;99.90
10512;DHT22;5304;48.604;2.096;2024-02-16T08:35:44;13.60;99.90
10512;DHT22;5304;48.604;2.096;2024-02-16T08:38:28;13.60;99.90
10512;DHT22;5304;48.604;2.096;2024-02-16T08:41:12;13.60;99.90
10512;DHT22;5304;48.604;2.096;2024-02-16T08:43:57;13.60;99.90
10512;DHT22;5304;48.604;2.096;2024-02-16T08:46:41;13.60;99.90
10512;DHT22;5304;48.604;2.096;2024-02-16T08:49:25;13.60;99.90
10512;DHT22;5304;48.604;2.096;2024-02-16T08:52:10;13.60;99.90
10512;DHT22;5304;48.604;2.096;2024-02-16T08:54:54;13.60;99.90
10512;DHT22;5304;48.604;2.096;2024-02-16T08:57:39;13.60;99.90
10512;DHT22;5304;48.604;2.096;2024-02-16T09:00:23;13.50;99.90
10512;DHT22;5304;48.604;2.096;2024-02-16T09:03:10;13.50;99.90
10512;DHT22;5304;48.604;2.096;2024-02-16T09:05:55;13.60;99.90
10512;DHT22;5304;48.604;2.096;2024-02-16T09:08:39;13.70;99.90
10512;DHT22;5304;48.604;2.096;2024-02-16T09:11:23;13.60;99.90
10512;DHT22;5304;48.604;2.096;2024-02-16T09:14:07;13.60;99.90
10512;DHT22;5304;48.604;2.096;2024-02-16T09:16:52;13.60;99.90
10512;DHT22;5304;48.604;2.096;2024-02-16T09:19:36;13.60;99.90
10512;DHT22;5304;48.604;2.096;2024-02-16T09:22:20;13.60;99.90
10512;DHT22;5304;48.604;2.096;2024-02-16T09:25:05;13.60;99.90
10512;DHT22;5304;48.604;2.096;2024-02-16T09:27:50;13.60;99.90
10512;DHT22;5304;48.604;2.096;2024-02-16T09:30:34;13.60;99.90
10512;DHT22;5304;48.604;2.096;2024-02-16T09:33:20;13.60;99.90
10512;DHT22;5304;48.604;2.096;2024-02-16T09:36:06;13.60;99.90
10512;DHT22;5304;48.604;2.096;2024-02-16T09:38:50;13.60;99.90
10512;DHT22;5304;48.604;2.096;2024-02-16T09:41:35;13.50;99.90
10512;DHT22;5304;48.604;2.096;2024-02-16T09:44:23;13.40;99.90
10512;DHT22;5304;48.604;2.096;2024-02-16T09:47:09;13.40;99.90
10512;DHT22;5304;48.604;2.096;2024-02-16T09:49:58;13.40;99.90
10512;DHT22;5304;48.604;2.096;2024-02-16T09:52:47;13.40;99.90
10512;DHT22;5304;48.604;2.096;2024-02-16T09:55:32;13.30;99.90
10512;DHT22;5304;48.604;2.096;2024-02-16T09:58:20;13.30;99.90
10512;DHT22;5304;48.604;2.096;2024-02-16T10:01:05;13.20;99.90
10512;DHT22;5304;48.604;2.096;2024-02-16T10:03:49;13.20;99.90
10512;DHT22;5304;48.604;2.096;2024-02-16T10:06:46;13.20;99.90
10512;DHT22;5304;48.604;2.096;2024-02-16T10:09:33;13.20;99.90
10512;DHT22;5304;48.604;2.096;2024-02-16T10:12:18;13.20;99.90
10512;DHT22;5304;48.604;2.096;2024-02-16T10:15:04;13.10;99.90
10512;DHT22;5304;48.604;2.096;2024-02-16T10:18:07;13.20;99.90
10512;DHT22;5304;48.604;2.096;2024-02-16T10:20:51;13.20;99.90
10512;DHT22;5304;48.604;2.096;2024-02-16T10:23:36;13.30;99.90
10512;DHT22;5304;48.604;2.096;2024-02-16T10:26:20;13.30;99.90
10512;DHT22;5304;48.604;2.096;2024-02-16T10:29:11;13.30;99.90
10512;DHT22;5304;48.604;2.096;2024-02-16T10:31:57;13.30;99.90
10512;DHT22;5304;48.604;2.096;2024-02-16T10:34:43;13.20;99.90
10512;DHT22;5304;48.604;2.096;2024-02-16T10:37:28;13.00;99.90
10512;DHT22;5304;48.604;2.096;2024-02-16T10:40:13;12.90;99.90
10512;DHT22;5304;48.604;2.096;2024-02-16T10:43:04;12.90;99.90
10512;DHT22;5304;48.604;2.096;2024-02-16T10:45:49;13.00;99.90
10512;DHT22;5304;48.604;2.096;2024-02-16T10:48:37;13.00;99.90
10512;DHT22;5304;48.604;2.096;2024-02-16T10:51:33;13.00;99.90
10512;DHT22;5304;48.604;2.096;2024-02-16T10:54:23;13.10;99.90
10512;DHT22;5304;48.604;2.096;2024-02-16T10:57:09;13.10;99.90
10512;DHT22;5304;48.604;2.096;2024-02-16T10:59:53;13.10;99.90
10512;DHT22;5304;48.604;2.096;2024-02-16T11:02:53;13.00;99.90
10512;DHT22;5304;48.604;2.096;2024-02-16T11:05:42;13.10;99.90
10512;DHT22;5304;48.604;2.096;2024-02-16T11:08:26;13.20;99.90
10512;DHT22;5304;48.604;2.096;2024-02-16T11:11:23;13.30;99.90
10512;DHT22;5304;48.604;2.096;2024-02-16T11:14:15;13.50;99.90
10512;DHT22;5304;48.604;2.096;2024-02-16T11:16:59;13.50;99.90
10512;DHT22;5304;48.604;2.096;2024-02-16T11:19:47;13.50;99.90
10512;DHT22;5304;48.604;2.096;2024-02-16T11:22:36;13.60;99.90
10512;DHT22;5304;48.604;2.096;2024-02-16T11:25:31;13.60;99.90
10512;DHT22;5304;48.604;2.096;2024-02-16T11:28:16;13.60;99.90
10512;DHT22;5304;48.604;2.096;2024-02-16T11:31:02;13.60;99.90
10512;DHT22;5304;48.604;2.096;2024-02-16T11:33:47;13.60;99.90
10512;DHT22;5304;48.604;2.096;2024-02-16T11:36:32;13.60;99.90
10512;DHT22;5304;48.604;2.096;2024-02-16T11:39:17;13.50;99.90
10512;DHT22;5304;48.604;2.096;2024-02-16T11:42:12;13.40;99.90
10512;DHT22;5304;48.604;2.096;2024-02-16T11:44:57;13.40;99.90
10512;DHT22;5304;48.604;2.096;2024-02-16T11:47:41;13.40;99.90
10512;DHT22;5304;48.604;2.096;2024-02-16T11:50:26;13.40;99.90
10512;DHT22;5304;48.604;2.096;2024-02-16T11:53:17;13.40;99.90
10512;DHT22;5304;48.604;2.096;2024-02-16T11:56:03;13.40;99.90
10512;DHT22;5304;48.604;2.096;2024-02-16T11:58:48;13.40;99.90
10512;DHT22;5304;48.604;2.096;2024-02-16T12:01:32;13.40;99.90
10512;DHT22;5304;48.604;2.096;2024-02-16T12:04:28;13.40;99.90
10512;DHT22;5304;48.604;2.096;2024-02-16T12:07:13;13.50;99.90
10512;DHT22;5304;48.604;2.096;2024-02-16T12:09:59;13.50;99.90
10512;DHT22;5304;48.604;2.096;2024-02-16T12:12:44;13.60;99.90
10512;DHT22;5304;48.604;2.096;2024-02-16T12:15:29;13.60;99.90
10512;DHT22;5304;48.604;2.096;2024-02-16T12:18:24;13.70;99.90
10512;DHT22;5304;48.604;2.096;2024-02-16T12:21:08;13.70;99.90
10512;DHT22;5304;48.604;2.096;2024-02-16T12:23:53;13.60;99.90
10512;DHT22;5304;48.604;2.096;2024-02-16T12:26:38;13.70;99.90
10512;DHT22;5304;48.604;2.096;2024-02-16T12:29:22;13.80;99.90
10512;DHT22;5304;48.604;2.096;2024-02-16T12:32:07;13.80;99.90
10512;DHT22;5304;48.604;2.096;2024-02-16T12:34:53;13.80;99.90
10512;DHT22;5304;48.604;2.096;2024-02-16T12:37:37;13.70;99.90
10512;DHT22;5304;48.604;2.096;2024-02-16T12:40:22;13.80;99.90
10512;DHT22;5304;48.604;2.096;2024-02-16T12:43:07;13.70;99.90
10512;DHT22;5304;48.604;2.096;2024-02-16T12:45:53;13.70;99.90
10512;DHT22;5304;48.604;2.096;2024-02-16T12:48:37;13.90;99.90
10512;DHT22;5304;48.604;2.096;2024-02-16T12:51:21;14.00;99.90
10512;DHT22;5304;48.604;2.096;2024-02-16T12:54:06;14.00;99.90
10512;DHT22;5304;48.604;2.096;2024-02-16T12:56:51;14.00;99.90
10512;DHT22;5304;48.604;2.096;2024-02-16T12:59:35;13.90;99.90
10512;DHT22;5304;48.604;2.096;2024-02-16T13:02:20;13.90;99.90
10512;DHT22;5304;48.604;2.096;2024-02-16T13:05:04;13.80;99.90
10512;DHT22;5304;48.604;2.096;2024-02-16T13:07:49;13.70;99.90
10512;DHT22;5304;48.604;2.096;2024-02-16T13:10:34;13.70;99.90
10512;DHT22;5304;48.604;2.096;2024-02-16T13:13:18;13.60;99.90
10512;DHT22;5304;48.604;2.096;2024-02-16T13:16:02;13.60;99.90
10512;DHT22;5304;48.604;2.096;2024-02-16T13:18:47;13.60;99.90
10512;DHT22;5304;48.604;2.096;2024-02-16T13:21:31;13.70;99.90
10512;DHT22;5304;48.604;2.096;2024-02-16T13:24:15;13.50;99.90
10512;DHT22;5304;48.604;2.096;2024-02-16T13:27:00;13.40;99.90
10512;DHT22;5304;48.604;2.096;2024-02-16T13:29:44;13.40;99.90
10512;DHT22;5304;48.604;2.096;2024-02-16T13:32:28;13.40;99.90
10512;DHT22;5304;48.604;2.096;2024-02-16T13:35:12;13.40;99.90
10512;DHT22;5304;48.604;2.096;2024-02-16T13:37:57;13.40;99.90
10512;DHT22;5304;48.604;2.096;2024-02-16T13:40:41;13.40;99.90
10512;DHT22;5304;48.604;2.096;2024-02-16T13:43:27;13.50;99.90
10512;DHT22;5304;48.604;2.096;2024-02-16T13:46:11;13.60;99.90
10512;DHT22;5304;48.604;2.096;2024-02-16T13:48:56;13.60;99.90
10512;DHT22;5304;48.604;2.096;2024-02-16T13:51:42;13.60;99.90
10512;DHT22;5304;48.604;2.096;2024-02-16T13:54:26;13.40;99.90
10512;DHT22;5304;48.604;2.096;2024-02-16T13:57:11;13.50;99.90
10512;DHT22;5304;48.604;2.096;2024-02-16T13:59:55;13.40;99.90
10512;DHT22;5304;48.604;2.096;2024-02-16T14:02:40;13.40;99.90
10512;DHT22;5304;48.604;2.096;2024-02-16T14:05:24;13.40;99.90
10512;DHT22;5304;48.604;2.096;2024-02-16T14:08:09;13.30;99.90
10512;DHT22;5304;48.604;2.096;2024-02-16T14:10:55;13.20;99.90
10512;DHT22;5304;48.604;2.096;2024-02-16T14:13:39;13.30;99.90
10512;DHT22;5304;48.604;2.096;2024-02-16T14:16:23;13.30;99.90
10512;DHT22;5304;48.604;2.096;2024-02-16T14:19:09;13.30;99.90
10512;DHT22;5304;48.604;2.096;2024-02-16T14:21:55;13.40;99.90
10512;DHT22;5304;48.604;2.096;2024-02-16T14:24:39;13.40;99.90
10512;DHT22;5304;48.604;2.096;2024-02-16T14:27:24;13.50;99.90
10512;DHT22;5304;48.604;2.096;2024-02-16T14:30:08;13.50;99.90
10512;DHT22;5304;48.604;2.096;2024-02-16T14:32:53;13.50;99.90
10512;DHT22;5304;48.604;2.096;2024-02-16T14:35:37;13.50;99.90
10512;DHT22;5304;48.604;2.096;2024-02-16T14:38:21;13.60;99.90
10512;DHT22;5304;48.604;2.096;2024-02-16T14:41:05;13.80;99.90
10512;DHT22;5304;48.604;2.096;2024-02-16T14:43:50;13.80;99.90
10512;DHT22;5304;48.604;2.096;2024-02-16T14:46:34;13.80;99.90
10512;DHT22;5304;48.604;2.096;2024-02-16T14:49:18;13.70;99.90
10512;DHT22;5304;48.604;2.096;2024-02-16T14:52:05;13.90;99.90
10512;DHT22;5304;48.604;2.096;2024-02-16T14:54:49;13.90;99.90
10512;DHT22;5304;48.604;2.096;2024-02-16T14:57:33;13.90;99.90
10512;DHT22;5304;48.604;2.096;2024-02-16T15:00:18;13.80;99.90
10512;DHT22;5304;48.604;2.096;2024-02-16T15:03:03;13.80;99.90
10512;DHT22;5304;48.604;2.096;2024-02-16T15:05:47;13.80;99.90
10512;DHT22;5304;48.604;2.096;2024-02-16T15:08:32;13.80;99.90
10512;DHT22;5304;48.604;2.096;2024-02-16T15:11:16;13.60;99.90
10512;DHT22;5304;48.604;2.096;2024-02-16T15:14:01;13.60;99.90
10512;DHT22;5304;48.604;2.096;2024-02-16T15:16:45;13.60;99.90
10512;DHT22;5304;48.604;2.096;2024-02-16T15:19:30;13.60;99.90
10512;DHT22;5304;48.604;2.096;2024-02-16T15:22:14;13.50;99.90
10512;DHT22;5304;48.604;2.096;2024-02-16T15:24:59;13.50;99.90
10512;DHT22;5304;48.604;2.096;2024-02-16T15:27:43;13.50;99.90
10512;DHT22;5304;48.604;2.096;2024-02-16T15:30:27;13.40;99.90
10512;DHT22;5304;48.604;2.096;2024-02-16T15:33:12;13.40;99.90
10512;DHT22;5304;48.604;2.096;2024-02-16T15:35:56;13.40;99.90
10512;DHT22;5304;48.604;2.096;2024-02-16T15:38:43;13.40;99.90
10512;DHT22;5304;48.604;2.096;2024-02-16T15:41:27;13.30;99.90
10512;DHT22;5304;48.604;2.096;2024-02-16T15:44:12;13.30;99.90
10512;DHT22;5304;48.604;2.096;2024-02-16T15:46:56;13.20;99.90
10512;DHT22;5304;48.604;2.096;2024-02-16T15:49:40;13.10;99.90
10512;DHT22;5304;48.604;2.096;2024-02-16T15:52:25;13.20;99.90
10512;DHT22;5304;48.604;2.096;2024-02-16T15:55:09;13.20;99.90
10512;DHT22;5304;48.604;2.096;2024-02-16T15:57:53;13.20;99.90
10512;DHT22;5304;48.604;2.096;2024-02-16T16:00:38;13.20;99.90
10512;DHT22;5304;48.604;2.096;2024-02-16T16:03:22;13.20;99.90
10512;DHT22;5304;48.604;2.096;2024-02-16T16:06:07;13.20;99.90
10512;DHT22;5304;48.604;2.096;2024-02-16T16:08:51;13.10;99.90
10512;DHT22;5304;48.604;2.096;2024-02-16T16:11:35;13.00;99.90
10512;DHT22;5304;48.604;2.096;2024-02-16T16:14:20;13.00;99.90
10512;DHT22;5304;48.604;2.096;2024-02-16T16:17:04;12.90;99.90
10512;DHT22;5304;48.604;2.096;2024-02-16T16:19:49;12.90;99.90
10512;DHT22;5304;48.604;2.096;2024-02-16T16:22:34;12.90;99.90
10512;DHT22;5304;48.604;2.096;2024-02-16T16:25:18;12.90;99.90
10512;DHT22;5304;48.604;2.096;2024-02-16T16:28:03;12.90;99.90
10512;DHT22;5304;48.604;2.096;2024-02-16T16:30:47;12.90;99.90
10512;DHT22;5304;48.604;2.096;2024-02-16T16:33:32;12.90;99.90
10512;DHT22;5304;48.604;2.096;2024-02-16T16:36:16;12.90;99.90
10512;DHT22;5304;48.604;2.096;2024-02-16T16:39:00;12.80;99.90
10512;DHT22;5304;48.604;2.096;2024-02-16T16:41:44;12.80;99.90
10512;DHT22;5304;48.604;2.096;2024-02-16T16:44:29;12.60;99.90
10512;DHT22;5304;48.604;2.096;2024-02-16T16:47:14;12.50;99.90
10512;DHT22;5304;48.604;2.096;2024-02-16T16:49:59;12.40;99.90
10512;DHT22;5304;48.604;2.096;2024-02-16T16:52:43;12.30;99.90
10512;DHT22;5304;48.604;2.096;2024-02-16T16:55:27;12.20;99.90
10512;DHT22;5304;48.604;2.096;2024-02-16T16:58:12;12.10;99.90
10512;DHT22;5304;48.604;2.096;2024-02-16T17:00:56;12.10;99.90
10512;DHT22;5304;48.604;2.096;2024-02-16T17:03:40;12.00;99.90
10512;DHT22;5304;48.604;2.096;2024-02-16T17:06:25;11.90;99.90
10512;DHT22;5304;48.604;2.096;2024-02-16T17:09:10;11.70;99.90
10512;DHT22;5304;48.604;2.096;2024-02-16T17:11:55;11.60;99.90
10512;DHT22;5304;48.604;2.096;2024-02-16T17:14:41;11.60;99.90
10512;DHT22;5304;48.604;2.096;2024-02-16T17:17:26;11.60;99.90
10512;DHT22;5304;48.604;2.096;2024-02-16T17:20:11;11.50;99.90
10512;DHT22;5304;48.604;2.096;2024-02-16T17:22:55;11.40;99.90
10512;DHT22;5304;48.604;2.096;2024-02-16T17:25:39;11.40;99.90
10512;DHT22;5304;48.604;2.096;2024-02-16T17:28:24;11.50;99.90
10512;DHT22;5304;48.604;2.096;2024-02-16T17:31:09;11.60;99.90
10512;DHT22;5304;48.604;2.096;2024-02-16T17:33:53;11.50;99.90
10512;DHT22;5304;48.604;2.096;2024-02-16T17:36:37;11.40;99.90
10512;DHT22;5304;48.604;2.096;2024-02-16T17:39:22;11.40;99.90